La Crosse Municipal Airport
KLSE : rendu visible

Aérodrome :











RETROUVEZ-NOUS SUR...

 
LOGIN :

S'inscrire | Disclaimer

   EN    FR    IT 

 









Légende :    VFR   VFR Marginal   IFR   IFR Intensif   IFR Très Intensif
Visi : 
Plafond : 
>= 8 km
>= 3000ft
5 à 8 km
1000 à 3000 ft
1500m à 5 km
500 à 1000 ft
800 à 1500m
200 à 500 ft
< 800m
< 200 ft
Symboles :   Orages  Brouillard  Fortes neiges  Fortes précipitations  Vent > 20 kt







- Altitude de l'aérodrome : 655 ft
- Code IATA : LSE


KLSE - La Crosse Municipal

DERNIER METAR :
  • 222053Z 31011KT 10SM -RA SCT035 OVC048 14/12 A2986 RMK AO2 SLP107 P0003 60004 T01440117 58006

METARs EXPIRÉS :
  • 221953Z 00000KT 7SM -RA BKN060 BKN075 OVC090 19/14 A2987 RMK AO2 RAB13 SLP109 P0001 T01890139
  • 221853Z 15005KT 10SM OVC065 21/12 A2988 RMK AO2 RAB36E52 SLP110 P0000 T02060122

TAF KLSE
Valide du 22 à 18h jusqu'au 23 à 18h UTC


221725Z 2218/2318 14006KT P6SM VCSH OVC060
FM222100 13006KT 5SM SHRA VCTS OVC035CB
FM230100 35011KT 3SM SHRA OVC012
FM230300 35012KT P6SM OVC008
FM231600 34008KT P6SM SCT012 BKN120
FIR KZMP / Amérique du Nord



MET'MAP, la Météo Aéronautique d'un coup d'oeil ! - Copyright ORBIFLY Décembre 2007 - Disclaimer

ORBIFLY MET'MAP TEAM :

Programmation & Développement : Alexandra Zaïnal
Conception & Développement : Baudouin d'Aumeries
Co-Programmation & Développement : Marc-Olivier Méhu
Soutien technique & logistique : Manuel Goepfert

Contact : metmap@orbifly.com




SOURCES & CREDITS :

   NOAA       Earth
Advisory